createdAt,value
2018-02-18T00:01:13.297Z,3.80
2018-02-18T00:03:43.576Z,3.80
2018-02-18T00:06:14.164Z,3.80
2018-02-18T00:08:43.944Z,3.80
2018-02-18T00:11:13.821Z,3.80
2018-02-18T00:13:44.161Z,3.70
2018-02-18T00:16:14.535Z,3.70
2018-02-18T00:18:44.301Z,3.60
2018-02-18T00:21:14.868Z,3.60
2018-02-18T00:23:44.638Z,3.60
2018-02-18T00:26:14.549Z,3.60
2018-02-18T00:28:45.090Z,3.50
2018-02-18T00:31:14.901Z,3.50
2018-02-18T00:33:44.715Z,3.60
2018-02-18T00:36:17.048Z,3.60
2018-02-18T00:38:47.806Z,3.60
2018-02-18T00:41:18.342Z,3.60
2018-02-18T00:43:48.925Z,3.60
2018-02-18T00:46:18.700Z,3.60
2018-02-18T00:48:48.513Z,3.50
2018-02-18T00:51:18.293Z,3.60
2018-02-18T00:53:48.098Z,3.60
2018-02-18T00:56:17.916Z,3.60
2018-02-18T00:58:47.698Z,3.60
2018-02-18T01:01:17.526Z,3.50
2018-02-18T01:03:47.342Z,3.50
2018-02-18T01:06:16.887Z,3.50
2018-02-18T01:08:46.700Z,3.60
2018-02-18T01:11:16.473Z,3.50
2018-02-18T01:13:46.327Z,3.50
2018-02-18T01:16:16.196Z,3.50
2018-02-18T01:18:45.997Z,3.50
2018-02-18T01:21:15.801Z,3.50
2018-02-18T01:23:45.586Z,3.60
2018-02-18T01:26:15.433Z,3.60
2018-02-18T01:28:46.292Z,3.70
2018-02-18T01:31:16.105Z,3.60
2018-02-18T01:33:45.877Z,3.60
2018-02-18T01:36:15.675Z,3.60
2018-02-18T01:38:45.458Z,3.60
2018-02-18T01:41:15.279Z,3.50
2018-02-18T01:43:45.857Z,3.50
2018-02-18T01:46:15.657Z,3.50
2018-02-18T01:48:45.650Z,3.50
2018-02-18T01:51:15.539Z,3.40
2018-02-18T01:53:45.302Z,3.40
2018-02-18T01:56:15.113Z,3.40
2018-02-18T01:58:44.873Z,3.40
2018-02-18T02:01:14.761Z,3.40
2018-02-18T02:03:44.558Z,3.40
2018-02-18T02:06:14.082Z,3.40
2018-02-18T02:08:43.565Z,3.40
2018-02-18T02:11:13.194Z,3.50
2018-02-18T02:13:43.017Z,3.40
2018-02-18T02:16:12.777Z,3.40
2018-02-18T02:18:42.577Z,3.30
2018-02-18T02:21:13.170Z,3.30
2018-02-18T02:23:43.349Z,3.30
2018-02-18T02:26:13.164Z,3.40
2018-02-18T02:28:42.940Z,3.40
2018-02-18T02:31:14.240Z,3.40
2018-02-18T02:33:44.046Z,3.40
2018-02-18T02:36:13.814Z,3.30
2018-02-18T02:38:44.212Z,3.40
2018-02-18T02:41:13.989Z,3.40
2018-02-18T02:43:43.804Z,3.30
2018-02-18T02:46:13.598Z,3.40
2018-02-18T02:48:43.398Z,3.40
2018-02-18T02:51:13.994Z,3.40
2018-02-18T02:53:43.873Z,3.40
2018-02-18T02:56:13.669Z,3.40
2018-02-18T02:58:44.258Z,3.40
2018-02-18T03:01:14.030Z,3.40
2018-02-18T03:03:43.839Z,3.40
2018-02-18T03:06:13.321Z,3.40
2018-02-18T03:08:43.116Z,3.40
2018-02-18T03:11:12.911Z,3.40
2018-02-18T03:13:42.731Z,3.40
2018-02-18T03:16:12.522Z,3.40
2018-02-18T03:18:42.304Z,3.40
2018-02-18T03:21:11.918Z,3.40
2018-02-18T03:23:41.689Z,3.40
2018-02-18T03:26:11.536Z,3.40
2018-02-18T03:28:41.310Z,3.40
2018-02-18T03:31:11.112Z,3.40
2018-02-18T03:33:40.924Z,3.40
2018-02-18T03:36:10.703Z,3.30
2018-02-18T03:38:40.342Z,3.40
2018-02-18T03:41:10.165Z,3.30
2018-02-18T03:43:40.002Z,3.30
2018-02-18T03:46:10.597Z,3.30
2018-02-18T03:48:40.365Z,3.30
2018-02-18T03:51:10.165Z,3.30
2018-02-18T03:53:40.761Z,3.30
2018-02-18T03:56:10.536Z,3.30
2018-02-18T03:58:40.356Z,3.20
2018-02-18T04:01:10.133Z,3.10
2018-02-18T04:03:40.693Z,3.20
2018-02-18T04:06:10.487Z,3.20
2018-02-18T04:08:40.301Z,3.20
2018-02-18T04:11:10.077Z,3.20
2018-02-18T04:13:39.993Z,3.20
2018-02-18T04:16:11.273Z,3.30
2018-02-18T04:18:41.083Z,3.30
2018-02-18T04:21:11.633Z,3.30
2018-02-18T04:23:41.445Z,3.30
2018-02-18T04:26:11.239Z,3.30
2018-02-18T04:28:41.013Z,3.30
2018-02-18T04:31:10.792Z,3.30
2018-02-18T04:33:40.634Z,3.30
2018-02-18T04:36:10.448Z,3.30
2018-02-18T04:38:40.215Z,3.30
2018-02-18T04:41:10.026Z,3.30
2018-02-18T04:43:39.809Z,3.30
2018-02-18T04:46:10.369Z,3.20
2018-02-18T04:48:40.160Z,3.20
2018-02-18T04:51:10.739Z,3.10
2018-02-18T04:53:40.527Z,3.10
2018-02-18T04:56:10.434Z,3.10
2018-02-18T04:58:41.777Z,3.20
2018-02-18T05:01:12.366Z,3.30
2018-02-18T05:03:42.508Z,3.30
2018-02-18T05:06:12.308Z,3.30
2018-02-18T05:08:42.134Z,3.30
2018-02-18T05:11:11.898Z,3.30
2018-02-18T05:13:41.698Z,3.30
2018-02-18T05:16:11.472Z,3.30
2018-02-18T05:18:41.273Z,3.40
2018-02-18T05:21:10.805Z,3.30
2018-02-18T05:23:41.383Z,3.30
2018-02-18T05:26:11.189Z,3.30
2018-02-18T05:28:40.967Z,3.30
2018-02-18T05:31:10.770Z,3.30
2018-02-18T05:33:41.317Z,3.20
2018-02-18T05:36:11.154Z,3.20
2018-02-18T05:38:40.938Z,3.20
2018-02-18T05:41:10.860Z,3.20
2018-02-18T05:43:40.661Z,3.20
2018-02-18T05:46:10.444Z,3.20
2018-02-18T05:48:40.235Z,3.20
2018-02-18T05:51:10.039Z,3.10
2018-02-18T05:53:39.883Z,3.20
2018-02-18T05:56:09.651Z,3.30
2018-02-18T05:58:39.461Z,3.30
2018-02-18T06:01:09.297Z,3.20
2018-02-18T06:03:39.063Z,3.20
2018-02-18T06:06:08.873Z,3.10
2018-02-18T06:08:39.413Z,3.10
2018-02-18T06:11:09.220Z,3.10
2018-02-18T06:13:38.998Z,3.20
2018-02-18T06:16:08.806Z,3.20
2018-02-18T06:18:38.583Z,3.20
2018-02-18T06:21:08.395Z,3.10
2018-02-18T06:23:38.181Z,3.10
2018-02-18T06:26:07.650Z,3.20
2018-02-18T06:28:37.450Z,3.20
2018-02-18T06:31:07.246Z,3.20
2018-02-18T06:33:37.078Z,3.20
2018-02-18T06:36:06.896Z,3.30
2018-02-18T06:38:36.726Z,3.40
2018-02-18T06:41:07.264Z,3.40
2018-02-18T06:43:37.826Z,3.40
2018-02-18T06:46:07.869Z,3.30
2018-02-18T06:48:37.628Z,3.40
2018-02-18T06:51:08.117Z,3.40
2018-02-18T06:53:37.879Z,3.40
2018-02-18T06:56:07.402Z,3.40
2018-02-18T06:58:37.154Z,3.40
2018-02-18T07:01:06.969Z,3.40
2018-02-18T07:03:36.757Z,3.40
2018-02-18T07:06:06.555Z,3.50
2018-02-18T07:08:36.353Z,3.50
2018-02-18T07:11:06.152Z,3.60
2018-02-18T07:13:35.620Z,3.60
2018-02-18T07:16:05.449Z,3.60
2018-02-18T07:18:35.217Z,3.70
2018-02-18T07:21:05.053Z,3.70
2018-02-18T07:23:34.813Z,3.70
2018-02-18T07:26:04.626Z,3.70
2018-02-18T07:28:34.625Z,3.60
2018-02-18T07:31:04.409Z,3.60
2018-02-18T07:33:34.201Z,3.50
2018-02-18T07:36:03.999Z,3.60
2018-02-18T07:38:33.796Z,3.60
2018-02-18T07:41:03.636Z,3.60
2018-02-18T07:43:33.225Z,3.60
2018-02-18T07:46:03.014Z,3.70
2018-02-18T07:48:33.531Z,3.70
2018-02-18T07:51:03.326Z,3.70
2018-02-18T07:53:33.089Z,3.70
2018-02-18T07:56:02.977Z,3.80
2018-02-18T07:58:33.521Z,3.80
2018-02-18T08:01:03.052Z,3.80
2018-02-18T08:03:32.918Z,3.90
2018-02-18T08:06:02.735Z,4.00
2018-02-18T08:08:32.574Z,3.90
2018-02-18T08:11:03.004Z,4.00
2018-02-18T08:13:32.992Z,3.90
2018-02-18T08:16:02.813Z,3.90
2018-02-18T08:18:32.597Z,3.90
2018-02-18T08:21:02.061Z,3.80
2018-02-18T08:23:31.828Z,3.70
2018-02-18T08:26:03.141Z,3.80
2018-02-18T08:28:33.026Z,3.80
2018-02-18T08:31:03.572Z,3.80
2018-02-18T08:33:33.350Z,3.80
2018-02-18T08:36:03.081Z,3.70
2018-02-18T08:38:32.877Z,3.80
2018-02-18T08:41:02.708Z,3.70
2018-02-18T08:43:33.267Z,3.80
2018-02-18T08:46:03.034Z,3.90
2018-02-18T08:48:32.875Z,3.90
2018-02-18T08:51:02.649Z,3.80
2018-02-18T08:53:32.551Z,3.80
2018-02-18T08:56:02.313Z,3.90
2018-02-18T08:58:32.118Z,3.90
2018-02-18T09:01:01.883Z,3.70
2018-02-18T09:03:31.765Z,3.70
2018-02-18T09:06:01.554Z,3.70
2018-02-18T09:08:31.461Z,3.70
2018-02-18T09:11:01.232Z,3.80
2018-02-18T09:13:31.788Z,3.90
2018-02-18T09:16:01.573Z,3.90
2018-02-18T09:18:32.132Z,4.00
2018-02-18T09:21:01.927Z,4.00
2018-02-18T09:23:31.740Z,4.20
2018-02-18T09:26:01.566Z,4.30
2018-02-18T09:28:31.325Z,4.30
2018-02-18T09:31:01.137Z,4.30
2018-02-18T09:33:30.897Z,4.40
2018-02-18T09:36:00.690Z,4.40
2018-02-18T09:38:31.247Z,4.50
2018-02-18T09:41:01.001Z,4.50
2018-02-18T09:43:30.814Z,4.50
2018-02-18T09:46:00.669Z,4.70
2018-02-18T09:48:30.462Z,4.60
2018-02-18T09:51:01.023Z,4.60
2018-02-18T09:53:30.813Z,4.50
2018-02-18T09:56:01.345Z,4.60
2018-02-18T09:58:31.209Z,4.60
2018-02-18T10:01:00.993Z,4.70
2018-02-18T10:03:31.667Z,4.80
2018-02-18T10:06:01.512Z,4.80
2018-02-18T10:08:32.313Z,4.90
2018-02-18T10:11:02.343Z,4.80
2018-02-18T10:13:32.156Z,4.80
2018-02-18T10:16:03.034Z,4.90
2018-02-18T10:18:32.798Z,4.80
2018-02-18T10:21:02.612Z,4.90
2018-02-18T10:23:32.523Z,4.90
2018-02-18T10:26:02.333Z,4.90
2018-02-18T10:28:33.663Z,4.90
2018-02-18T10:31:03.969Z,4.90
2018-02-18T10:33:33.828Z,5.00
2018-02-18T10:36:03.628Z,5.00
2018-02-18T10:38:33.425Z,5.00
2018-02-18T10:41:03.033Z,4.90
2018-02-18T10:43:32.788Z,5.10
2018-02-18T10:46:02.661Z,5.10
2018-02-18T10:48:32.418Z,4.90
2018-02-18T10:51:02.025Z,4.90
2018-02-18T10:53:31.885Z,5.00
2018-02-18T10:56:01.733Z,5.10
2018-02-18T10:58:31.540Z,5.10
2018-02-18T11:01:01.420Z,5.00
2018-02-18T11:03:31.324Z,4.90
2018-02-18T11:06:01.144Z,4.80
2018-02-18T11:08:30.915Z,4.80
2018-02-18T11:11:00.757Z,4.90
2018-02-18T11:13:30.546Z,5.00
2018-02-18T11:16:00.335Z,5.10
2018-02-18T11:18:30.164Z,5.10
2018-02-18T11:20:59.949Z,5.20
2018-02-18T11:23:29.914Z,5.30
2018-02-18T11:25:59.699Z,5.40
2018-02-18T11:28:29.514Z,5.40
2018-02-18T11:30:59.297Z,5.50
2018-02-18T11:33:29.841Z,5.50
2018-02-18T11:35:59.655Z,5.50
2018-02-18T11:38:29.450Z,5.40
2018-02-18T11:40:59.264Z,5.50
2018-02-18T11:43:29.055Z,5.50
2018-02-18T11:45:59.322Z,5.50
2018-02-18T11:48:29.523Z,5.40
2018-02-18T11:50:59.297Z,5.40
2018-02-18T11:53:29.862Z,5.30
2018-02-18T11:55:59.631Z,5.30
2018-02-18T11:58:29.426Z,5.30
2018-02-18T12:00:59.211Z,5.40
2018-02-18T12:03:28.965Z,5.40
2018-02-18T12:05:58.759Z,5.40
2018-02-18T12:08:28.635Z,5.30
2018-02-18T12:11:00.117Z,5.30
2018-02-18T12:13:29.972Z,5.20
2018-02-18T12:16:00.540Z,5.20
2018-02-18T12:18:30.341Z,5.20
2018-02-18T12:21:00.913Z,5.30
2018-02-18T12:23:30.681Z,5.30
2018-02-18T12:26:01.272Z,5.20
2018-02-18T12:28:31.033Z,5.20
2018-02-18T12:31:01.624Z,5.20
2018-02-18T12:33:31.390Z,5.20
2018-02-18T12:36:01.305Z,5.20
2018-02-18T12:38:31.193Z,5.20
2018-02-18T12:41:01.178Z,5.20
2018-02-18T12:43:31.105Z,5.20
2018-02-18T12:46:01.681Z,5.50
2018-02-18T12:48:31.441Z,5.40
2018-02-18T12:51:01.240Z,5.40
2018-02-18T12:53:31.093Z,5.40
2018-02-18T12:56:00.970Z,5.40
2018-02-18T12:58:30.759Z,5.40
2018-02-18T13:04:10.801Z,5.30
2018-02-18T13:06:40.613Z,5.30
2018-02-18T13:09:10.397Z,5.30
2018-02-18T13:11:40.180Z,5.10
2018-02-18T13:14:09.972Z,5.10
2018-02-18T13:16:40.310Z,5.20
2018-02-18T13:19:10.137Z,5.00
2018-02-18T13:21:39.948Z,4.90
2018-02-18T13:24:10.573Z,4.80
2018-02-18T13:26:40.545Z,4.70
2018-02-18T13:29:10.302Z,4.70
2018-02-18T13:31:40.148Z,4.80
2018-02-18T13:34:10.096Z,4.80
2018-02-18T13:36:39.884Z,4.80
2018-02-18T13:39:10.413Z,4.70
2018-02-18T13:41:40.962Z,4.80
2018-02-18T13:44:10.741Z,4.70
2018-02-18T13:46:40.527Z,4.80
2018-02-18T13:49:10.285Z,4.80
2018-02-18T13:51:40.859Z,4.70
2018-02-18T13:54:11.581Z,4.70
2018-02-18T13:56:41.532Z,4.70
2018-02-18T13:59:12.513Z,4.80
2018-02-18T14:01:43.456Z,4.90
2018-02-18T14:04:13.503Z,4.80
2018-02-18T14:06:43.499Z,4.70
2018-02-18T14:09:14.726Z,4.60
2018-02-18T14:11:46.312Z,4.70
2018-02-18T14:14:17.432Z,4.70
2018-02-18T14:16:49.829Z,4.70
2018-02-18T14:19:20.738Z,4.70
2018-02-18T14:21:50.556Z,4.80
2018-02-18T14:24:21.098Z,4.80
2018-02-18T14:26:50.908Z,4.80
2018-02-18T14:29:20.704Z,4.90
2018-02-18T14:31:51.045Z,4.80
2018-02-18T14:34:20.830Z,4.70
2018-02-18T14:36:50.595Z,4.80
2018-02-18T14:39:20.406Z,4.70
2018-02-18T14:42:01.462Z,4.60
2018-02-18T14:44:42.098Z,4.60
2018-02-18T14:47:22.882Z,4.50
2018-02-18T14:50:03.547Z,4.50
2018-02-18T14:52:44.232Z,4.50
2018-02-18T14:55:29.941Z,4.50
2018-02-18T14:57:59.763Z,4.50
2018-02-18T15:00:29.527Z,4.50
2018-02-18T15:03:00.093Z,4.40
2018-02-18T15:05:29.863Z,4.40
2018-02-18T15:08:00.638Z,4.50
2018-02-18T15:10:30.406Z,4.40
2018-02-18T15:13:00.218Z,4.40
2018-02-18T15:15:30.471Z,4.40
2018-02-18T15:18:00.274Z,4.40
2018-02-18T15:20:30.817Z,4.80
2018-02-18T15:23:00.374Z,4.80
2018-02-18T15:25:30.136Z,4.70
2018-02-18T15:27:59.998Z,4.70
2018-02-18T15:30:29.808Z,4.40
2018-02-18T15:32:59.595Z,4.40
2018-02-18T15:35:29.123Z,4.40
2018-02-18T15:37:58.956Z,4.30
2018-02-18T15:40:28.736Z,4.20
2018-02-18T15:42:58.530Z,4.30
2018-02-18T15:45:29.099Z,4.20
2018-02-18T15:47:58.879Z,4.20
2018-02-18T15:50:29.011Z,4.20
2018-02-18T15:52:58.833Z,4.20
2018-02-18T15:55:28.661Z,4.20
2018-02-18T15:57:58.418Z,4.20
2018-02-18T16:00:28.223Z,4.20
2018-02-18T16:02:57.986Z,4.20
2018-02-18T16:05:28.542Z,4.20
2018-02-18T16:07:58.308Z,4.20
2018-02-18T16:10:28.151Z,4.20
2018-02-18T16:12:57.990Z,4.10
2018-02-18T16:15:27.750Z,4.10
2018-02-18T16:17:58.306Z,4.00
2018-02-18T16:20:27.778Z,4.00
2018-02-18T16:22:57.547Z,4.00
2018-02-18T16:25:27.340Z,4.00
2018-02-18T16:27:57.316Z,4.00
2018-02-18T16:30:27.106Z,4.00
2018-02-18T16:32:56.856Z,4.00
2018-02-18T16:35:27.567Z,4.00
2018-02-18T16:37:57.358Z,3.90
2018-02-18T16:40:27.149Z,4.00
2018-02-18T16:42:56.908Z,3.90
2018-02-18T16:45:26.693Z,4.00
2018-02-18T16:47:56.476Z,4.00
2018-02-18T16:50:27.255Z,4.00
2018-02-18T16:52:57.084Z,4.00
2018-02-18T16:55:26.901Z,4.00
2018-02-18T16:57:56.670Z,4.00
2018-02-18T17:00:26.488Z,4.10
2018-02-18T17:02:56.234Z,4.00
2018-02-18T17:05:25.696Z,4.00
2018-02-18T17:07:56.341Z,4.00
2018-02-18T17:10:26.904Z,4.10
2018-02-18T17:12:56.718Z,4.10
2018-02-18T17:15:26.518Z,4.10
2018-02-18T17:17:56.316Z,4.00
2018-02-18T17:20:26.847Z,4.10
2018-02-18T17:22:56.659Z,4.10
2018-02-18T17:25:27.180Z,3.90
2018-02-18T17:27:57.739Z,3.90
2018-02-18T17:30:27.497Z,3.90
2018-02-18T17:32:58.791Z,3.70
2018-02-18T17:35:30.053Z,3.80
2018-02-18T17:38:00.455Z,3.70
2018-02-18T17:40:30.257Z,3.70
2018-02-18T17:43:04.529Z,3.70
2018-02-18T17:45:36.763Z,3.70
2018-02-18T17:48:06.532Z,3.70
2018-02-18T17:50:36.327Z,3.70
2018-02-18T17:53:06.181Z,3.70
2018-02-18T17:55:35.945Z,3.80
2018-02-18T17:58:05.751Z,3.80
2018-02-18T18:00:36.869Z,3.80
2018-02-18T18:03:06.811Z,3.80
2018-02-18T18:05:36.654Z,3.80
2018-02-18T18:08:06.294Z,3.80
2018-02-18T18:10:37.361Z,3.70
2018-02-18T18:13:07.178Z,3.70
2018-02-18T18:15:36.962Z,3.80
2018-02-18T18:18:07.498Z,3.80
2018-02-18T18:20:39.104Z,3.80
2018-02-18T18:23:09.321Z,3.80
2018-02-18T18:25:39.115Z,3.80
2018-02-18T18:28:09.551Z,3.90
2018-02-18T18:30:42.549Z,3.90
2018-02-18T18:33:12.371Z,3.90
2018-02-18T18:35:42.130Z,3.90
2018-02-18T18:38:11.974Z,3.80
2018-02-18T18:40:41.933Z,3.90
2018-02-18T18:43:11.732Z,3.90
2018-02-18T18:45:41.618Z,3.90
2018-02-18T18:48:11.412Z,3.90
2018-02-18T18:50:41.966Z,3.80
2018-02-18T18:53:11.790Z,3.80
2018-02-18T18:55:41.549Z,3.80
2018-02-18T18:58:11.850Z,3.80
2018-02-18T19:00:41.623Z,3.80
2018-02-18T19:03:11.454Z,3.80
2018-02-18T19:05:41.255Z,3.80
2018-02-18T19:08:11.036Z,3.80
2018-02-18T19:10:40.850Z,3.80
2018-02-18T19:13:11.044Z,3.90
2018-02-18T19:15:40.869Z,3.90
2018-02-18T19:18:10.646Z,3.90
2018-02-18T19:20:40.501Z,3.80
2018-02-18T19:23:10.300Z,3.80
2018-02-18T19:25:40.097Z,3.80
2018-02-18T19:28:09.898Z,3.80
2018-02-18T19:30:39.664Z,3.80
2018-02-18T19:33:10.283Z,3.70
2018-02-18T19:35:40.049Z,3.70
2018-02-18T19:38:09.842Z,3.70
2018-02-18T19:40:39.654Z,3.70
2018-02-18T19:43:10.210Z,3.70
2018-02-18T19:45:40.156Z,3.70
2018-02-18T19:48:09.945Z,3.70
2018-02-18T19:50:39.748Z,3.70
2018-02-18T19:53:09.614Z,3.70
2018-02-18T19:55:39.374Z,3.70
2018-02-18T19:58:09.384Z,3.70
2018-02-18T20:00:40.311Z,3.70
2018-02-18T20:03:10.126Z,3.70
2018-02-18T20:05:40.772Z,3.70
2018-02-18T20:08:10.562Z,3.60
2018-02-18T20:10:41.206Z,3.60
2018-02-18T20:13:10.970Z,3.60
2018-02-18T20:15:40.765Z,3.60
2018-02-18T20:18:10.562Z,3.60
2018-02-18T20:20:40.350Z,3.60
2018-02-18T20:23:10.983Z,3.70
2018-02-18T20:25:40.800Z,3.70
2018-02-18T20:28:10.614Z,3.70
2018-02-18T20:30:40.426Z,3.60
2018-02-18T20:33:11.032Z,3.70
2018-02-18T20:35:40.850Z,3.70
2018-02-18T20:38:10.642Z,3.70
2018-02-18T20:40:40.598Z,3.70
2018-02-18T20:43:11.149Z,3.60
2018-02-18T20:45:41.061Z,3.60
2018-02-18T20:48:10.837Z,3.50
2018-02-18T20:50:40.732Z,3.50
2018-02-18T20:53:11.435Z,3.50
2018-02-18T20:55:41.279Z,3.40
2018-02-18T20:58:11.145Z,3.50
2018-02-18T21:00:41.675Z,3.50
2018-02-18T21:03:12.224Z,3.50
2018-02-18T21:05:42.477Z,3.50
2018-02-18T21:08:12.353Z,3.50
2018-02-18T21:10:42.906Z,3.40
2018-02-18T21:16:03.935Z,3.40
2018-02-18T21:18:33.714Z,3.30
2018-02-18T21:21:03.535Z,3.20
2018-02-18T21:23:33.301Z,3.20
2018-02-18T21:26:03.113Z,3.30
2018-02-18T21:28:32.933Z,3.30
2018-02-18T21:31:02.702Z,3.20
2018-02-18T21:33:33.284Z,3.10
2018-02-18T21:36:37.920Z,3.10
2018-02-18T21:39:09.882Z,3.10
2018-02-18T21:41:50.047Z,3.10
2018-02-18T21:44:22.653Z,3.10
2018-02-18T21:46:53.756Z,3.10
2018-02-18T21:49:23.664Z,3.10
2018-02-18T21:51:53.446Z,3.10
2018-02-18T21:54:24.029Z,3.10
2018-02-18T21:56:53.814Z,3.10
2018-02-18T21:59:23.614Z,3.00
2018-02-18T22:01:53.417Z,3.00
2018-02-18T22:04:23.987Z,3.00
2018-02-18T22:06:53.828Z,2.90
2018-02-18T22:09:23.805Z,2.90
2018-02-18T22:11:53.318Z,2.90
2018-02-18T22:14:23.174Z,2.90
2018-02-18T22:16:52.942Z,2.80
2018-02-18T22:19:22.752Z,2.70
2018-02-18T22:21:52.282Z,2.70
2018-02-18T22:24:22.046Z,2.70
2018-02-18T22:26:51.865Z,2.70
2018-02-18T22:29:22.404Z,2.70
2018-02-18T22:31:52.981Z,2.70
2018-02-18T22:34:22.886Z,2.70
2018-02-18T22:36:52.664Z,2.70
2018-02-18T22:39:22.488Z,2.70
2018-02-18T22:41:53.051Z,2.80
2018-02-18T22:44:22.816Z,2.80
2018-02-18T22:46:52.606Z,2.90
2018-02-18T22:49:22.412Z,2.80
2018-02-18T22:51:52.209Z,2.80
2018-02-18T22:54:22.008Z,2.90
2018-02-18T22:56:51.809Z,2.80
2018-02-18T22:59:21.581Z,2.80
2018-02-18T23:01:51.377Z,2.80
2018-02-18T23:04:21.197Z,2.80
2018-02-18T23:06:50.799Z,2.80
2018-02-18T23:09:20.599Z,2.80
2018-02-18T23:11:50.369Z,2.70
2018-02-18T23:14:20.161Z,2.80
2018-02-18T23:16:50.096Z,2.80
2018-02-18T23:19:20.645Z,2.90
2018-02-18T23:21:50.182Z,2.90
2018-02-18T23:24:19.979Z,2.90
2018-02-18T23:26:49.766Z,2.90
2018-02-18T23:29:19.246Z,2.90
2018-02-18T23:31:49.046Z,2.90
2018-02-18T23:34:18.823Z,2.80
2018-02-18T23:36:48.740Z,2.80
2018-02-18T23:39:18.498Z,2.90
2018-02-18T23:41:48.285Z,2.90
2018-02-18T23:44:18.091Z,2.90
2018-02-18T23:46:47.866Z,3.00
2018-02-18T23:49:18.422Z,2.80
2018-02-18T23:51:48.414Z,2.80
2018-02-18T23:54:18.982Z,2.80
2018-02-18T23:56:48.772Z,2.80
2018-02-18T23:59:18.533Z,2.80
